createdAt,value
2022-10-05T00:01:21.988Z,99968.28
2022-10-05T00:03:48.958Z,99966.94
2022-10-05T00:06:15.913Z,99951.69
2022-10-05T00:08:43.151Z,99960.19
2022-10-05T00:11:13.598Z,99963.09
2022-10-05T00:13:41.358Z,99960.81
2022-10-05T00:16:17.472Z,99950.75
2022-10-05T00:18:50.694Z,99952.44
2022-10-05T00:21:27.251Z,99977.91
2022-10-05T00:23:57.870Z,99962.25
2022-10-05T00:26:26.945Z,99966.63
2022-10-05T00:28:54.684Z,99952.16
2022-10-05T00:31:24.613Z,99946.94
2022-10-05T00:33:52.126Z,99972.91
2022-10-05T00:36:19.514Z,99938.22
2022-10-05T00:38:46.783Z,99972.22
2022-10-05T00:41:47.232Z,99976.31
2022-10-05T00:44:45.823Z,99977.38
2022-10-05T00:47:31.302Z,99970.13
2022-10-05T00:50:32.715Z,99961.69
2022-10-05T00:53:16.139Z,99972.03
2022-10-05T00:56:04.172Z,99964.06
2022-10-05T00:59:14.483Z,99963.28
2022-10-05T01:01:47.008Z,99973.28
2022-10-05T01:04:13.652Z,99971.75
2022-10-05T01:07:18.784Z,99968.53
2022-10-05T01:10:06.174Z,99973.22
2022-10-05T01:12:44.328Z,99960.56
2022-10-05T01:15:23.989Z,99946.88
2022-10-05T01:18:12.643Z,99947.06
2022-10-05T01:21:02.862Z,99950.78
2022-10-05T01:23:34.145Z,99948.09
2022-10-05T01:26:26.863Z,99939.66
2022-10-05T01:29:32.039Z,99929.47
2022-10-05T01:32:40.905Z,99930.81
2022-10-05T01:35:36.602Z,99931.84
2022-10-05T01:38:19.613Z,99919.00
2022-10-05T01:41:06.503Z,99913.03
2022-10-05T01:44:03.712Z,99914.66
2022-10-05T01:46:39.156Z,99899.34
2022-10-05T01:51:47.758Z,99861.41
2022-10-05T01:54:17.117Z,99886.50
2022-10-05T01:56:57.271Z,99903.00
2022-10-05T02:02:16.767Z,99892.72
2022-10-05T02:05:06.739Z,99887.69
2022-10-05T02:07:44.288Z,99874.94
2022-10-05T02:12:57.627Z,99866.44
2022-10-05T02:15:35.425Z,99824.75
2022-10-05T02:18:12.555Z,99846.41
2022-10-05T02:20:42.577Z,99877.75
2022-10-05T02:23:18.243Z,99872.75
2022-10-05T02:25:47.858Z,99867.22
2022-10-05T02:28:22.134Z,99864.00
2022-10-05T02:31:02.299Z,99811.81
2022-10-05T02:33:30.232Z,99873.66
2022-10-05T02:36:30.172Z,99878.13
2022-10-05T02:39:29.831Z,99853.50
2022-10-05T02:42:19.151Z,99824.25
2022-10-05T02:44:58.601Z,99859.50
2022-10-05T02:53:05.466Z,99864.31
2022-10-05T02:55:43.764Z,99850.34
2022-10-05T02:58:16.442Z,99855.16
2022-10-05T03:00:50.909Z,99856.13
2022-10-05T03:03:28.155Z,99850.59
2022-10-05T03:06:04.103Z,99845.56
2022-10-05T03:08:55.626Z,99850.69
2022-10-05T03:11:28.501Z,99853.50
2022-10-05T03:14:21.469Z,99848.50
2022-10-05T03:17:19.342Z,99843.69
2022-10-05T03:20:15.984Z,99844.19
2022-10-05T03:22:54.772Z,99844.75
2022-10-05T03:25:30.669Z,99846.56
2022-10-05T03:28:13.592Z,99854.34
2022-10-05T03:31:14.313Z,99843.25
2022-10-05T03:33:59.503Z,99844.94
2022-10-05T03:36:35.372Z,99839.94
2022-10-05T03:39:30.831Z,99844.41
2022-10-05T03:42:24.703Z,99844.84
2022-10-05T03:45:05.772Z,99830.84
2022-10-05T03:48:03.276Z,99845.44
2022-10-05T03:50:42.872Z,99843.94
2022-10-05T03:53:37.934Z,99844.38
2022-10-05T03:56:35.168Z,99840.53
2022-10-05T03:59:32.204Z,99841.50
2022-10-05T04:02:02.952Z,99847.38
2022-10-05T04:04:42.652Z,99856.38
2022-10-05T04:07:19.862Z,99850.03
2022-10-05T04:09:50.053Z,99860.78
2022-10-05T04:12:25.908Z,99861.88
2022-10-05T04:15:18.595Z,99853.41
2022-10-05T04:17:50.327Z,99841.75
2022-10-05T04:20:21.874Z,99858.47
2022-10-05T04:23:19.467Z,99853.34
2022-10-05T04:26:02.488Z,99856.97
2022-10-05T04:29:04.947Z,99858.22
2022-10-05T04:31:58.466Z,99854.31
2022-10-05T04:34:53.364Z,99862.00
2022-10-05T04:37:31.852Z,99870.66
2022-10-05T04:40:30.778Z,99851.78
2022-10-05T04:43:05.550Z,99867.00
2022-10-05T04:45:43.114Z,99854.38
2022-10-05T04:48:23.257Z,99867.41
2022-10-05T04:51:10.035Z,99871.19
2022-10-05T04:53:55.380Z,99871.78
2022-10-05T04:56:25.119Z,99865.78
2022-10-05T04:59:21.323Z,99865.59
2022-10-05T05:02:12.044Z,99886.69
2022-10-05T05:05:08.956Z,99896.69
2022-10-05T05:07:46.980Z,99892.09
2022-10-05T05:10:40.980Z,99889.34
2022-10-05T05:13:30.532Z,99897.63
2022-10-05T05:16:16.304Z,99893.63
2022-10-05T05:19:04.818Z,99891.25
2022-10-05T05:21:51.853Z,99897.44
2022-10-05T05:24:30.334Z,99910.75
2022-10-05T05:27:34.524Z,99900.94
2022-10-05T05:30:12.760Z,99899.91
2022-10-05T05:33:01.277Z,99892.78
2022-10-05T05:35:46.217Z,99901.34
2022-10-05T05:38:44.354Z,99892.28
2022-10-05T05:41:15.030Z,99892.16
2022-10-05T05:43:59.698Z,99902.44
2022-10-05T05:47:02.880Z,99901.28
2022-10-05T05:50:01.820Z,99915.25
2022-10-05T05:52:39.112Z,99922.00
2022-10-05T05:55:12.208Z,99916.28
2022-10-05T05:57:44.836Z,99912.06
2022-10-05T06:00:22.232Z,99910.22
2022-10-05T06:02:52.095Z,99921.53
2022-10-05T06:05:28.174Z,99929.81
2022-10-05T06:07:58.342Z,99921.81
2022-10-05T06:10:28.945Z,99929.63
2022-10-05T06:13:01.883Z,99907.34
2022-10-05T06:16:00.201Z,99922.81
2022-10-05T06:18:29.051Z,99917.81
2022-10-05T06:21:16.098Z,99930.50
2022-10-05T06:23:53.943Z,99924.00
2022-10-05T06:26:32.957Z,99923.91
2022-10-05T06:29:08.590Z,99906.72
2022-10-05T06:32:06.076Z,99921.84
2022-10-05T06:34:47.823Z,99919.16
2022-10-05T06:37:28.408Z,99917.66
2022-10-05T06:40:11.272Z,99915.19
2022-10-05T06:43:05.619Z,99923.63
2022-10-05T06:45:50.404Z,99922.19
2022-10-05T06:48:25.562Z,99931.25
2022-10-05T06:51:25.412Z,99941.63
2022-10-05T06:54:19.713Z,99939.41
2022-10-05T06:56:52.380Z,99935.19
2022-10-05T07:00:02.648Z,99920.81
2022-10-05T07:02:49.634Z,99928.75
2022-10-05T07:05:51.999Z,99947.50
2022-10-05T07:08:37.346Z,99943.69
2022-10-05T07:11:56.559Z,99939.50
2022-10-05T07:14:54.481Z,99945.63
2022-10-05T07:17:34.326Z,99953.09
2022-10-05T07:20:14.411Z,99939.97
2022-10-05T07:22:50.663Z,99941.91
2022-10-05T07:25:22.983Z,99943.19
2022-10-05T07:28:18.411Z,99934.75
2022-10-05T07:30:58.933Z,99915.66
2022-10-05T07:33:43.702Z,99935.09
2022-10-05T07:36:41.789Z,99937.81
2022-10-05T07:39:18.752Z,99945.34
2022-10-05T07:41:53.037Z,99934.84
2022-10-05T07:44:32.243Z,99920.53
2022-10-05T07:47:15.575Z,99911.88
2022-10-05T07:49:56.476Z,99922.00
2022-10-05T07:52:36.683Z,99916.94
2022-10-05T07:55:47.245Z,99898.75
2022-10-05T07:58:13.967Z,99925.09
2022-10-05T08:01:05.032Z,99934.06
2022-10-05T08:03:45.359Z,99922.84
2022-10-05T08:06:19.502Z,99928.44
2022-10-05T08:08:57.573Z,99918.94
2022-10-05T08:12:03.409Z,99903.41
2022-10-05T08:14:43.887Z,99899.56
2022-10-05T08:17:43.687Z,99893.88
2022-10-05T08:20:23.282Z,99894.72
2022-10-05T08:22:58.882Z,99884.63
2022-10-05T08:25:38.973Z,99892.41
2022-10-05T08:28:11.504Z,99877.94
2022-10-05T08:30:54.233Z,99889.91
2022-10-05T08:33:23.012Z,99877.50
2022-10-05T08:36:03.012Z,99883.94
2022-10-05T08:38:32.422Z,99885.78
2022-10-05T08:41:28.333Z,99891.44
2022-10-05T08:44:15.043Z,99894.72
2022-10-05T08:46:59.913Z,99886.94
2022-10-05T08:49:46.387Z,99864.38
2022-10-05T08:52:22.379Z,99884.63
2022-10-05T08:55:34.133Z,99831.91
2022-10-05T08:58:03.933Z,99878.47
2022-10-05T09:01:06.795Z,99856.00
2022-10-05T09:03:56.686Z,99875.88
2022-10-05T09:06:38.643Z,99884.38
2022-10-05T09:09:30.903Z,99882.84
2022-10-05T09:12:41.822Z,99877.66
2022-10-05T09:15:25.864Z,99883.66
2022-10-05T09:18:18.952Z,99871.91
2022-10-05T09:20:55.302Z,99868.91
2022-10-05T09:23:34.303Z,99865.81
2022-10-05T09:26:29.048Z,99872.41
2022-10-05T09:29:14.265Z,99854.69
2022-10-05T09:32:16.312Z,99856.09
2022-10-05T09:35:01.561Z,99854.88
2022-10-05T09:38:10.232Z,99856.06
2022-10-05T09:40:47.841Z,99852.16
2022-10-05T09:44:02.387Z,99836.28
2022-10-05T09:46:44.285Z,99847.47
2022-10-05T09:49:23.250Z,99851.50
2022-10-05T09:51:56.507Z,99852.34
2022-10-05T09:55:03.043Z,99846.94
2022-10-05T09:57:41.585Z,99846.03
2022-10-05T10:00:29.461Z,99842.03
2022-10-05T10:03:14.996Z,99844.91
2022-10-05T10:06:14.065Z,99836.09
2022-10-05T10:08:55.243Z,99838.31
2022-10-05T10:11:46.100Z,99837.63
2022-10-05T10:14:22.638Z,99838.47
2022-10-05T10:16:55.799Z,99829.66
2022-10-05T10:20:00.429Z,99825.44
2022-10-05T10:23:04.248Z,99828.66
2022-10-05T10:26:05.358Z,99828.81
2022-10-05T10:28:51.100Z,99837.09
2022-10-05T10:31:37.150Z,99824.72
2022-10-05T10:34:42.895Z,99829.13
2022-10-05T10:37:34.764Z,99825.00
2022-10-05T10:40:23.542Z,99816.66
2022-10-05T10:42:56.557Z,99814.63
2022-10-05T10:45:38.138Z,99812.63
2022-10-05T10:48:11.586Z,99817.34
2022-10-05T10:51:00.452Z,99813.75
2022-10-05T10:53:53.414Z,99824.56
2022-10-05T10:56:39.298Z,99798.00
2022-10-05T10:59:30.848Z,99808.50
2022-10-05T11:02:19.507Z,99810.22
2022-10-05T11:04:55.401Z,99810.53
2022-10-05T11:07:43.525Z,99815.50
2022-10-05T11:10:42.991Z,99815.75
2022-10-05T11:13:22.213Z,99804.53
2022-10-05T11:16:19.584Z,99791.22
2022-10-05T11:19:05.184Z,99801.06
2022-10-05T11:21:53.224Z,99800.97
2022-10-05T11:24:25.752Z,99793.22
2022-10-05T11:27:08.582Z,99780.16
2022-10-05T11:29:46.170Z,99789.53
2022-10-05T11:32:50.412Z,99776.28
2022-10-05T11:35:54.617Z,99772.47
2022-10-05T11:38:36.980Z,99774.00
2022-10-05T11:41:28.682Z,99764.53
2022-10-05T11:44:16.885Z,99769.66
2022-10-05T11:46:58.609Z,99745.75
2022-10-05T11:49:40.651Z,99758.84
2022-10-05T11:52:25.980Z,99735.84
2022-10-05T11:55:29.589Z,99755.34
2022-10-05T11:58:04.317Z,99738.84
2022-10-05T12:00:45.256Z,99714.19
2022-10-05T12:03:21.096Z,99742.84
2022-10-05T12:06:14.931Z,99747.91
2022-10-05T12:08:44.434Z,99753.75
2022-10-05T12:11:46.833Z,99752.38
2022-10-05T12:14:28.624Z,99759.13
2022-10-05T12:17:10.583Z,99738.44
2022-10-05T12:19:58.632Z,99754.47
2022-10-05T12:22:33.956Z,99741.91
2022-10-05T12:25:18.050Z,99728.00
2022-10-05T12:27:52.556Z,99717.97
2022-10-05T12:30:27.795Z,99742.94
2022-10-05T12:33:15.908Z,99755.03
2022-10-05T12:35:52.560Z,99737.50
2022-10-05T12:38:46.925Z,99746.06
2022-10-05T12:41:48.487Z,99739.22
2022-10-05T12:44:33.857Z,99741.59
2022-10-05T12:47:40.667Z,99725.03
2022-10-05T12:50:39.688Z,99749.38
2022-10-05T12:53:17.013Z,99748.13
2022-10-05T12:56:24.272Z,99736.19
2022-10-05T13:03:08.851Z,99732.03
2022-10-05T13:06:14.924Z,99725.19
2022-10-05T13:08:57.513Z,99709.31
2022-10-05T13:11:35.388Z,99697.91
2022-10-05T13:14:14.409Z,99730.81
2022-10-05T13:17:04.318Z,99690.19
2022-10-05T13:19:40.698Z,99657.38
2022-10-05T13:22:22.940Z,99727.53
2022-10-05T13:25:18.000Z,99726.50
2022-10-05T13:27:51.104Z,99721.44
2022-10-05T13:30:22.431Z,99720.88
2022-10-05T13:32:57.828Z,99664.81
2022-10-05T13:35:53.453Z,99699.53
2022-10-05T13:38:28.713Z,99717.28
2022-10-05T13:41:27.577Z,99672.63
2022-10-05T13:44:13.749Z,99716.78
2022-10-05T13:46:58.213Z,99649.00
2022-10-05T13:49:33.264Z,99674.25
2022-10-05T13:55:11.892Z,99704.03
2022-10-05T13:57:51.850Z,99700.28
2022-10-05T14:00:25.675Z,99692.84
2022-10-05T14:02:59.809Z,99690.56
2022-10-05T14:05:30.562Z,99678.75
2022-10-05T14:08:16.432Z,99695.75
2022-10-05T14:10:46.075Z,99697.44
2022-10-05T14:13:27.495Z,99697.44
2022-10-05T14:16:07.747Z,99686.69
2022-10-05T14:18:37.574Z,99704.72
2022-10-05T14:21:04.193Z,99693.59
2022-10-05T14:23:31.164Z,99697.75
2022-10-05T14:25:58.023Z,99701.75
2022-10-05T14:28:28.675Z,99702.22
2022-10-05T14:31:16.406Z,99683.34
2022-10-05T14:33:43.565Z,99673.75
2022-10-05T14:36:23.649Z,99665.03
2022-10-05T14:38:58.096Z,99692.13
2022-10-05T14:41:27.692Z,99683.47
2022-10-05T14:43:58.583Z,99686.47
2022-10-05T14:46:29.231Z,99685.94
2022-10-05T14:49:24.273Z,99692.34
2022-10-05T14:51:52.185Z,99687.25
2022-10-05T14:54:30.940Z,99690.28
2022-10-05T14:57:17.137Z,99685.63
2022-10-05T15:00:17.172Z,99647.78
2022-10-05T15:03:12.984Z,99676.78
2022-10-05T15:05:45.764Z,99685.47
2022-10-05T15:08:12.407Z,99685.09
2022-10-05T15:10:52.772Z,99688.13
2022-10-05T15:13:23.873Z,99685.19
2022-10-05T15:15:54.891Z,99689.28
2022-10-05T15:18:32.227Z,99682.84
2022-10-05T15:21:32.866Z,99686.97
2022-10-05T15:24:09.484Z,99679.19
2022-10-05T15:26:50.674Z,99620.13
2022-10-05T15:29:36.327Z,99677.13
2022-10-05T15:32:21.817Z,99672.22
2022-10-05T15:35:28.874Z,99685.34
2022-10-05T15:38:21.174Z,99673.16
2022-10-05T15:41:10.312Z,99647.03
2022-10-05T15:43:47.777Z,99660.75
2022-10-05T15:46:43.681Z,99652.28
2022-10-05T15:49:49.189Z,99693.22
2022-10-05T15:52:25.844Z,99664.28
2022-10-05T15:55:14.463Z,99690.16
2022-10-05T15:57:56.463Z,99693.53
2022-10-05T16:00:25.558Z,99673.41
2022-10-05T16:02:57.732Z,99687.81
2022-10-05T16:06:04.923Z,99697.47
2022-10-05T16:08:53.232Z,99694.03
2022-10-05T16:11:45.093Z,99698.25
2022-10-05T16:14:30.401Z,99695.66
2022-10-05T16:17:24.330Z,99702.25
2022-10-05T16:19:53.828Z,99698.81
2022-10-05T16:22:44.146Z,99694.69
2022-10-05T16:25:22.397Z,99693.97
2022-10-05T16:28:05.944Z,99702.22
2022-10-05T16:30:50.085Z,99688.31
2022-10-05T16:33:54.661Z,99704.34
2022-10-05T16:36:59.883Z,99702.28
2022-10-05T16:39:52.185Z,99698.19
2022-10-05T16:42:35.063Z,99696.88
2022-10-05T16:45:26.056Z,99704.28
2022-10-05T16:48:09.194Z,99702.75
2022-10-05T16:50:49.757Z,99701.03
2022-10-05T16:53:44.280Z,99686.84
2022-10-05T16:56:39.590Z,99698.25
2022-10-05T16:59:41.361Z,99714.91
2022-10-05T17:02:32.138Z,99719.63
2022-10-05T17:05:18.113Z,99705.59
2022-10-05T17:07:47.687Z,99708.63
2022-10-05T17:10:37.193Z,99712.78
2022-10-05T17:13:16.476Z,99710.94
2022-10-05T17:16:04.419Z,99717.88
2022-10-05T17:18:57.469Z,99725.03
2022-10-05T17:22:08.942Z,99717.97
2022-10-05T17:24:53.978Z,99727.41
2022-10-05T17:27:35.332Z,99722.63
2022-10-05T17:30:28.558Z,99720.00
2022-10-05T17:32:57.433Z,99725.84
2022-10-05T17:35:54.093Z,99729.69
2022-10-05T17:38:35.655Z,99727.72
2022-10-05T17:41:18.119Z,99731.16
2022-10-05T17:44:16.562Z,99731.44
2022-10-05T17:46:55.305Z,99733.72
2022-10-05T17:49:40.327Z,99733.44
2022-10-05T17:52:45.111Z,99722.88
2022-10-05T17:55:32.373Z,99727.97
2022-10-05T17:58:22.548Z,99730.81
2022-10-05T18:00:58.532Z,99733.81
2022-10-05T18:03:41.762Z,99730.72
2022-10-05T18:06:32.147Z,99733.84
2022-10-05T18:09:11.755Z,99727.94
2022-10-05T18:11:41.995Z,99729.78
2022-10-05T18:14:25.727Z,99723.81
2022-10-05T18:17:10.402Z,99726.91
2022-10-05T18:19:39.872Z,99724.81
2022-10-05T18:22:28.053Z,99710.13
2022-10-05T18:25:06.242Z,99733.63
2022-10-05T18:27:51.022Z,99735.22
2022-10-05T18:30:26.431Z,99748.81
2022-10-05T18:33:23.850Z,99744.47
2022-10-05T18:36:10.894Z,99746.31
2022-10-05T18:38:47.600Z,99745.16
2022-10-05T18:41:33.191Z,99737.94
2022-10-05T18:44:06.704Z,99739.22
2022-10-05T18:46:44.699Z,99751.13
2022-10-05T18:49:29.898Z,99754.66
2022-10-05T18:52:27.982Z,99751.28
2022-10-05T18:55:07.242Z,99758.38
2022-10-05T18:57:56.336Z,99759.50
2022-10-05T19:00:27.749Z,99764.75
2022-10-05T19:03:04.949Z,99754.41
2022-10-05T19:06:06.597Z,99763.88
2022-10-05T19:08:58.313Z,99762.19
2022-10-05T19:11:41.693Z,99756.38
2022-10-05T19:14:18.455Z,99764.00
2022-10-05T19:17:14.362Z,99767.53
2022-10-05T19:20:09.394Z,99766.25
2022-10-05T19:22:54.961Z,99769.09
2022-10-05T19:25:47.725Z,99771.22
2022-10-05T19:28:49.933Z,99774.47
2022-10-05T19:32:15.799Z,99784.69
2022-10-05T19:34:50.003Z,99786.06
2022-10-05T19:37:44.623Z,99786.34
2022-10-05T19:40:39.387Z,99795.81
2022-10-05T19:43:37.296Z,99796.97
2022-10-05T19:46:04.797Z,99803.69
2022-10-05T19:48:44.912Z,99806.75
2022-10-05T19:51:27.408Z,99789.56
2022-10-05T19:53:57.205Z,99803.59
2022-10-05T19:56:27.152Z,99803.28
2022-10-05T19:58:57.981Z,99814.72
2022-10-05T20:01:26.647Z,99822.59
2022-10-05T20:03:54.035Z,99823.44
2022-10-05T20:06:22.898Z,99818.91
2022-10-05T20:08:52.494Z,99833.13
2022-10-05T20:11:27.443Z,99832.78
2022-10-05T20:13:55.108Z,99825.84
2022-10-05T20:16:49.919Z,99827.97
2022-10-05T20:19:50.416Z,99846.19
2022-10-05T20:22:37.623Z,99843.41
2022-10-05T20:25:08.091Z,99845.28
2022-10-05T20:27:41.616Z,99849.84
2022-10-05T20:30:10.927Z,99855.53
2022-10-05T20:32:38.615Z,99819.25
2022-10-05T20:35:07.246Z,99838.00
2022-10-05T20:37:33.977Z,99857.84
2022-10-05T20:40:00.787Z,99873.09
2022-10-05T20:42:27.529Z,99883.09
2022-10-05T20:44:56.969Z,99875.09
2022-10-05T20:47:24.611Z,99883.00
2022-10-05T20:49:53.530Z,99880.44
2022-10-05T20:52:20.996Z,99879.38
2022-10-05T20:54:48.280Z,99886.91
2022-10-05T20:57:15.038Z,99873.94
2022-10-05T20:59:41.758Z,99877.53
2022-10-05T21:02:08.487Z,99887.03
2022-10-05T21:04:40.856Z,99882.19
2022-10-05T21:07:08.520Z,99898.88
2022-10-05T21:09:38.075Z,99896.69
2022-10-05T21:12:04.896Z,99897.94
2022-10-05T21:14:34.522Z,99888.59
2022-10-05T21:17:02.248Z,99902.38
2022-10-05T21:19:29.678Z,99901.75
2022-10-05T21:21:59.490Z,99901.88
2022-10-05T21:24:26.413Z,99901.66
2022-10-05T21:26:57.162Z,99904.56
2022-10-05T21:29:24.029Z,99900.47
2022-10-05T21:31:51.253Z,99906.44
2022-10-05T21:34:18.135Z,99902.41
2022-10-05T21:36:45.075Z,99901.31
2022-10-05T21:39:11.920Z,99911.44
2022-10-05T21:41:38.657Z,99903.84
2022-10-05T21:44:06.847Z,99914.44
2022-10-05T21:46:36.358Z,99913.97
2022-10-05T21:49:03.397Z,99920.66
2022-10-05T21:51:30.107Z,99916.06
2022-10-05T21:54:03.680Z,99921.28
2022-10-05T21:56:36.482Z,99914.34
2022-10-05T21:59:06.633Z,99916.03
2022-10-05T22:01:36.006Z,99925.91
2022-10-05T22:04:04.313Z,99923.22
2022-10-05T22:06:31.272Z,99918.56
2022-10-05T22:08:58.302Z,99913.22
2022-10-05T22:11:25.662Z,99892.88
2022-10-05T22:13:53.618Z,99929.66
2022-10-05T22:16:23.820Z,99926.13
2022-10-05T22:18:50.749Z,99925.53
2022-10-05T22:21:17.612Z,99926.50
2022-10-05T22:23:46.190Z,99937.69
2022-10-05T22:26:16.745Z,99936.22
2022-10-05T22:28:44.587Z,99922.94
2022-10-05T22:31:12.884Z,99928.19
2022-10-05T22:33:40.034Z,99920.50
2022-10-05T22:36:08.010Z,99913.81
2022-10-05T22:38:35.120Z,99927.72
2022-10-05T22:41:01.859Z,99916.13
2022-10-05T22:43:29.048Z,99925.00
2022-10-05T22:45:56.746Z,99924.88
2022-10-05T22:48:23.513Z,99929.63
2022-10-05T22:50:50.262Z,99921.81
2022-10-05T22:53:17.434Z,99912.78
2022-10-05T22:55:44.155Z,99910.09
2022-10-05T22:58:10.926Z,99927.16
2022-10-05T23:03:34.438Z,99930.97
2022-10-05T23:06:03.812Z,99937.81
2022-10-05T23:08:32.623Z,99934.50
2022-10-05T23:11:11.155Z,99921.69
2022-10-05T23:13:38.115Z,99937.41
2022-10-05T23:16:16.086Z,99925.38
2022-10-05T23:18:43.282Z,99939.97
2022-10-05T23:21:11.429Z,99942.91
2022-10-05T23:23:40.643Z,99943.47
2022-10-05T23:26:09.963Z,99941.28
2022-10-05T23:28:38.510Z,99933.59
2022-10-05T23:31:08.011Z,99936.84
2022-10-05T23:33:35.507Z,99938.69
2022-10-05T23:36:23.586Z,99953.38
2022-10-05T23:38:50.324Z,99943.13
2022-10-05T23:41:17.743Z,99942.16
2022-10-05T23:43:44.491Z,99923.88
2022-10-05T23:46:11.952Z,99956.91
2022-10-05T23:48:39.726Z,99955.53
2022-10-05T23:51:12.917Z,99958.56
2022-10-05T23:53:39.653Z,99920.50
2022-10-05T23:56:06.684Z,99949.88
2022-10-05T23:58:33.596Z,99965.09
